Time;durP1;ratioP1;P1;durP2;ratioP2;P2;SDS_P1;SDS_P2;PMS_P1;PMS_P2;Temp;Humidity;BMP_temperature;BMP_pressure;BME280_temperature;BME280_humidity;BME280_pressure;Samples;Min_cycle;Max_cycle;Signal;HPM_P1;HPM_P2
2022/09/30 00:01:41;;;;;;;10.17;9.87;;;7.00;99.90;;;;;;5142513;27;20228;-79
2022/09/30 00:04:11;;;;;;;10.27;9.97;;;7.00;99.90;;;;;;5143016;27;20234;-80
2022/09/30 00:06:40;;;;;;;10.27;9.97;;;7.00;99.90;;;;;;5143028;27;20319;-79
2022/09/30 00:09:10;;;;;;;10.17;9.87;;;7.00;99.90;;;;;;5142603;27;20244;-79
2022/09/30 00:11:39;;;;;;;10.17;9.87;;;7.00;99.90;;;;;;5142696;27;20230;-78
2022/09/30 00:14:16;;;;;;;10.27;9.97;;;7.00;99.90;;;;;;5143232;27;20224;-78
2022/09/30 00:16:46;;;;;;;10.37;10.07;;;7.00;99.90;;;;;;5142746;27;20236;-78
2022/09/30 00:19:16;;;;;;;10.30;10.00;;;6.90;99.90;;;;;;5142449;27;20238;-80
2022/09/30 00:21:45;;;;;;;10.30;10.00;;;6.90;99.90;;;;;;5142955;27;20220;-79
2022/09/30 00:24:14;;;;;;;10.13;9.83;;;6.90;99.90;;;;;;5142613;27;20235;-80
2022/09/30 00:26:43;;;;;;;10.10;9.80;;;6.80;99.90;;;;;;5142453;27;20251;-80
2022/09/30 00:29:15;;;;;;;10.20;9.90;;;6.80;99.90;;;;;;5142557;27;20718;-80
2022/09/30 00:31:43;;;;;;;10.20;9.90;;;6.80;99.90;;;;;;5142809;27;20204;-78
2022/09/30 00:34:11;;;;;;;9.80;9.50;;;6.80;99.90;;;;;;5141044;27;20232;-80
2022/09/30 00:36:43;;;;;;;10.30;10.00;;;6.70;99.90;;;;;;5141909;27;20228;-79
2022/09/30 00:39:21;;;;;;;10.20;9.90;;;6.70;99.90;;;;;;5141976;27;20244;-79
2022/09/30 00:41:53;;;;;;;10.07;9.77;;;6.70;99.90;;;;;;5142426;27;20251;-78
2022/09/30 00:44:53;;;;;;;10.27;9.97;;;6.70;99.90;;;;;;5142571;27;20216;-79
2022/09/30 00:47:43;;;;;;;10.13;9.83;;;6.70;99.90;;;;;;5142473;27;20319;-79
2022/09/30 00:50:37;;;;;;;10.30;10.00;;;6.70;99.90;;;;;;5147130;27;20228;-78
2022/09/30 00:53:11;;;;;;;10.30;10.00;;;6.60;99.90;;;;;;5143417;27;20239;-79
2022/09/30 00:55:55;;;;;;;10.10;9.80;;;6.60;99.90;;;;;;5142747;27;20234;-78
2022/09/30 00:58:29;;;;;;;10.40;10.10;;;6.50;99.90;;;;;;5142392;27;20239;-78
2022/09/30 01:01:03;;;;;;;10.47;10.17;;;6.50;99.90;;;;;;5142616;27;20228;-79
2022/09/30 01:03:32;;;;;;;10.50;10.20;;;6.50;99.90;;;;;;5142300;27;20242;-79
2022/09/30 01:06:01;;;;;;;10.37;10.07;;;6.40;99.90;;;;;;5142441;27;20238;-79
2022/09/30 01:08:31;;;;;;;10.60;10.30;;;6.30;99.90;;;;;;5142182;27;20227;-79
2022/09/30 01:10:58;;;;;;;10.37;10.07;;;6.30;99.90;;;;;;5142083;27;20227;-79
2022/09/30 01:13:30;;;;;;;10.40;10.10;;;6.30;99.90;;;;;;5142225;27;20232;-78
2022/09/30 01:16:17;;;;;;;10.63;10.33;;;6.30;99.90;;;;;;5141757;27;20232;-79
2022/09/30 01:19:05;;;;;;;10.50;10.20;;;6.30;99.90;;;;;;5142156;27;20232;-78
2022/09/30 01:22:18;;;;;;;10.40;10.10;;;6.20;99.90;;;;;;5142236;27;20238;-78
2022/09/30 01:25:38;;;;;;;10.20;9.90;;;6.20;99.90;;;;;;5141655;27;20285;-79
2022/09/30 01:28:43;;;;;;;10.43;10.13;;;6.20;99.90;;;;;;5114388;27;20224;-78
2022/09/30 01:31:28;;;;;;;10.20;9.90;;;6.10;99.90;;;;;;5142012;27;20314;-78
2022/09/30 01:34:08;;;;;;;10.13;9.83;;;6.10;99.90;;;;;;5148511;27;20211;-79
2022/09/30 01:36:50;;;;;;;10.80;10.50;;;6.10;99.90;;;;;;5144867;27;20230;-79
2022/09/30 01:39:33;;;;;;;10.53;10.23;;;6.10;99.90;;;;;;5143562;27;20242;-79
2022/09/30 01:42:13;;;;;;;10.30;10.00;;;6.10;99.90;;;;;;5142977;27;20224;-79
2022/09/30 01:44:53;;;;;;;10.30;10.00;;;6.20;99.90;;;;;;5141676;27;20240;-78
2022/09/30 01:47:28;;;;;;;10.50;10.20;;;6.20;99.90;;;;;;5140922;27;20232;-79
2022/09/30 01:50:05;;;;;;;10.40;10.10;;;6.20;99.90;;;;;;5141506;27;20267;-79
2022/09/30 01:52:40;;;;;;;10.33;10.03;;;6.20;99.90;;;;;;5142386;27;20254;-79
2022/09/30 01:55:15;;;;;;;10.30;10.00;;;6.20;99.90;;;;;;5141380;27;20230;-80
2022/09/30 01:57:54;;;;;;;10.43;10.13;;;6.30;99.90;;;;;;5141553;27;20224;-79
2022/09/30 02:00:23;;;;;;;10.30;10.00;;;6.30;99.90;;;;;;5142043;27;20231;-79
2022/09/30 02:03:01;;;;;;;10.53;10.23;;;6.30;99.90;;;;;;5141285;27;20240;-79
2022/09/30 02:05:39;;;;;;;10.30;10.00;;;6.30;99.90;;;;;;5141835;27;20238;-79
2022/09/30 02:08:16;;;;;;;10.60;10.30;;;6.30;99.90;;;;;;5141197;27;20285;-79
2022/09/30 02:10:48;;;;;;;10.40;10.10;;;6.30;99.90;;;;;;5141767;27;20277;-79
2022/09/30 02:13:21;;;;;;;10.50;10.20;;;6.30;99.90;;;;;;5142221;27;20702;-79
2022/09/30 02:15:56;;;;;;;10.20;9.90;;;6.30;99.90;;;;;;5143873;27;20310;-79
2022/09/30 02:18:33;;;;;;;10.30;10.00;;;6.30;99.90;;;;;;5144085;27;20234;-78
2022/09/30 02:21:03;;;;;;;10.30;10.00;;;6.30;99.90;;;;;;5141644;27;20276;-78
2022/09/30 02:23:34;;;;;;;10.40;10.10;;;6.20;99.90;;;;;;5140944;27;20231;-79
2022/09/30 02:26:07;;;;;;;10.30;10.00;;;6.30;99.90;;;;;;5139891;27;20300;-78
2022/09/30 02:28:39;;;;;;;10.50;10.20;;;6.30;99.90;;;;;;5140134;27;20251;-79
2022/09/30 02:31:10;;;;;;;10.20;9.90;;;6.30;99.90;;;;;;5141146;27;20216;-79
2022/09/30 02:33:47;;;;;;;10.17;9.87;;;6.30;99.90;;;;;;5140604;27;20286;-78
2022/09/30 02:36:22;;;;;;;10.37;10.07;;;6.30;99.90;;;;;;5140407;27;20236;-79
2022/09/30 02:39:00;;;;;;;10.43;10.13;;;6.30;99.90;;;;;;5140675;27;20219;-78
2022/09/30 02:41:33;;;;;;;10.50;10.20;;;6.30;99.90;;;;;;5142085;27;20273;-79
2022/09/30 02:44:02;;;;;;;10.50;10.20;;;6.30;99.90;;;;;;5141153;27;20761;-80
2022/09/30 02:46:41;;;;;;;10.30;10.00;;;6.30;99.90;;;;;;5140411;27;20266;-78
2022/09/30 02:49:21;;;;;;;10.70;10.40;;;6.30;99.90;;;;;;5141247;27;20320;-79
2022/09/30 02:52:10;;;;;;;10.50;10.20;;;6.30;99.90;;;;;;5146525;27;20227;-79
2022/09/30 02:54:49;;;;;;;10.60;10.30;;;6.40;99.90;;;;;;5140879;27;20321;-79
2022/09/30 02:57:25;;;;;;;10.57;10.27;;;6.40;99.90;;;;;;5141484;27;20234;-79
2022/09/30 02:59:53;;;;;;;10.63;10.33;;;6.50;99.90;;;;;;5144321;27;20213;-80
2022/09/30 03:02:23;;;;;;;10.50;10.20;;;6.40;99.90;;;;;;5144086;27;20270;-79
2022/09/30 03:04:53;;;;;;;10.70;10.40;;;6.40;99.90;;;;;;5143562;27;20968;-79
2022/09/30 03:07:21;;;;;;;10.50;10.20;;;6.40;99.90;;;;;;5144585;27;20231;-79
2022/09/30 03:09:49;;;;;;;10.50;10.20;;;6.50;99.90;;;;;;5143638;27;20236;-79
2022/09/30 03:12:32;;;;;;;10.50;10.20;;;6.50;99.90;;;;;;5143988;27;20226;-79
2022/09/30 03:15:38;;;;;;;10.17;9.87;;;6.60;99.90;;;;;;5143325;27;20236;-78
2022/09/30 03:18:37;;;;;;;10.40;10.10;;;6.50;99.90;;;;;;5147415;27;20245;-79
2022/09/30 03:21:26;;;;;;;10.50;10.20;;;6.50;99.90;;;;;;5145273;27;20220;-79
2022/09/30 03:24:28;;;;;;;10.57;10.27;;;6.50;99.90;;;;;;5145408;27;20272;-79
2022/09/30 03:27:10;;;;;;;10.50;10.20;;;6.40;99.90;;;;;;5144027;27;20284;-79
2022/09/30 03:29:47;;;;;;;10.37;10.07;;;6.40;99.90;;;;;;5144124;27;20236;-79
2022/09/30 03:32:33;;;;;;;10.40;10.10;;;6.40;99.90;;;;;;5143924;27;20223;-80
2022/09/30 03:35:12;;;;;;;10.57;10.27;;;6.40;99.90;;;;;;5144531;27;20246;-80
2022/09/30 03:37:59;;;;;;;10.50;10.20;;;6.30;99.90;;;;;;5144863;27;20346;-80
2022/09/30 03:40:37;;;;;;;10.43;10.13;;;6.20;99.90;;;;;;5145112;27;20239;-80
2022/09/30 03:43:13;;;;;;;10.43;10.13;;;6.30;99.90;;;;;;5145166;27;20232;-80
2022/09/30 03:45:48;;;;;;;10.23;9.93;;;6.30;99.90;;;;;;5143975;27;20228;-80
2022/09/30 03:48:19;;;;;;;10.30;10.00;;;6.30;99.90;;;;;;5145512;27;20230;-79
2022/09/30 03:50:46;;;;;;;10.30;10.00;;;6.20;99.90;;;;;;5144808;27;20238;-80
2022/09/30 03:53:16;;;;;;;10.33;10.03;;;6.30;99.90;;;;;;5146475;27;20272;-80
2022/09/30 03:55:51;;;;;;;10.40;10.10;;;6.30;99.90;;;;;;5144206;27;20247;-79
2022/09/30 03:58:22;;;;;;;10.60;10.30;;;6.30;99.90;;;;;;5144437;27;20231;-80
2022/09/30 04:00:52;;;;;;;10.73;10.43;;;6.30;99.90;;;;;;5145153;27;20242;-81
2022/09/30 04:03:21;;;;;;;10.70;10.40;;;6.20;99.90;;;;;;5144957;27;20228;-80
2022/09/30 04:05:49;;;;;;;10.33;10.03;;;6.20;99.90;;;;;;5145099;27;20305;-80
2022/09/30 04:08:18;;;;;;;10.40;10.10;;;6.10;99.90;;;;;;5145205;27;20232;-80
2022/09/30 04:10:48;;;;;;;10.67;10.37;;;6.20;99.90;;;;;;5127556;27;20229;-79
2022/09/30 04:13:17;;;;;;;10.40;10.10;;;6.10;99.90;;;;;;5144072;27;20220;-80
2022/09/30 04:15:45;;;;;;;10.43;10.13;;;6.20;99.90;;;;;;5144018;27;20224;-80
2022/09/30 04:18:16;;;;;;;10.57;10.27;;;6.20;99.90;;;;;;5145102;27;20223;-80
2022/09/30 04:20:46;;;;;;;10.70;10.40;;;6.20;99.90;;;;;;5145007;27;20228;-81
2022/09/30 04:23:16;;;;;;;10.60;10.30;;;6.10;99.90;;;;;;5145377;27;20228;-79
2022/09/30 04:25:53;;;;;;;10.40;10.10;;;6.20;99.90;;;;;;5145086;27;20619;-80
2022/09/30 04:28:22;;;;;;;10.40;10.10;;;6.20;99.90;;;;;;5145626;27;20223;-80
2022/09/30 04:30:51;;;;;;;10.60;10.30;;;6.10;99.90;;;;;;5146358;27;20238;-80
2022/09/30 04:33:19;;;;;;;10.70;10.40;;;6.10;99.90;;;;;;5145671;27;20224;-79
2022/09/30 04:35:48;;;;;;;10.40;10.10;;;6.10;99.90;;;;;;5145716;27;20224;-80
2022/09/30 04:38:19;;;;;;;10.20;9.90;;;6.10;99.90;;;;;;5146242;27;20292;-80
2022/09/30 04:40:55;;;;;;;10.60;10.30;;;6.10;99.90;;;;;;5145783;27;20227;-80
2022/09/30 04:43:23;;;;;;;10.70;10.40;;;6.10;99.90;;;;;;5145263;27;20311;-80
2022/09/30 04:45:52;;;;;;;10.20;9.90;;;6.10;99.90;;;;;;5146317;27;20247;-81
2022/09/30 04:48:21;;;;;;;10.40;10.10;;;6.10;99.90;;;;;;5145715;27;20240;-79
2022/09/30 04:50:49;;;;;;;10.50;10.20;;;6.10;99.90;;;;;;5149923;27;20240;-78
2022/09/30 04:53:19;;;;;;;10.30;10.00;;;6.10;99.90;;;;;;5150561;27;20224;-78
2022/09/30 04:55:48;;;;;;;10.70;10.40;;;6.10;99.90;;;;;;5150239;27;20301;-78
2022/09/30 04:58:16;;;;;;;10.60;10.30;;;6.10;99.90;;;;;;5150602;27;20291;-79
2022/09/30 05:00:44;;;;;;;10.70;10.40;;;6.10;99.90;;;;;;5157737;27;20699;-78
2022/09/30 05:03:14;;;;;;;10.50;10.20;;;6.10;99.90;;;;;;5157131;27;20256;-79
2022/09/30 05:05:48;;;;;;;10.80;10.50;;;6.10;99.90;;;;;;5152836;27;20310;-78
2022/09/30 05:08:17;;;;;;;11.30;10.90;;;6.10;99.90;;;;;;5151775;27;20299;-78
2022/09/30 05:10:45;;;;;;;11.03;10.63;;;6.10;99.90;;;;;;5152459;27;20231;-78
2022/09/30 05:13:15;;;;;;;11.30;10.90;;;6.10;99.90;;;;;;5157056;27;20212;-78
2022/09/30 05:15:44;;;;;;;11.63;11.23;;;6.10;99.90;;;;;;5157332;27;20228;-79
2022/09/30 05:18:12;;;;;;;11.83;11.43;;;6.10;99.90;;;;;;5157730;27;20318;-78
2022/09/30 05:20:39;;;;;;;11.40;11.00;;;6.10;99.90;;;;;;5156401;27;20228;-79
2022/09/30 05:23:07;;;;;;;11.47;11.07;;;6.00;99.90;;;;;;5157516;27;20220;-78
2022/09/30 05:25:35;;;;;;;11.50;11.10;;;6.00;99.90;;;;;;5158161;27;20232;-79
2022/09/30 05:28:03;;;;;;;11.70;11.30;;;5.90;99.90;;;;;;5158519;27;20291;-78
2022/09/30 05:30:32;;;;;;;11.47;11.07;;;5.90;99.90;;;;;;5156563;27;20243;-78
2022/09/30 05:33:00;;;;;;;11.40;11.00;;;5.90;99.90;;;;;;5156317;27;20216;-79
2022/09/30 05:35:28;;;;;;;11.20;10.80;;;5.90;99.90;;;;;;5154254;27;20238;-79
2022/09/30 05:37:55;;;;;;;11.30;10.90;;;6.00;99.90;;;;;;5155390;27;20226;-78
2022/09/30 05:40:22;;;;;;;11.20;10.80;;;6.00;99.90;;;;;;5147968;27;20238;-79
2022/09/30 05:42:50;;;;;;;11.07;10.67;;;5.90;99.90;;;;;;5142070;27;20232;-79
2022/09/30 05:45:18;;;;;;;11.40;11.00;;;5.90;99.90;;;;;;5140556;27;20224;-79
2022/09/30 05:47:53;;;;;;;11.30;10.90;;;5.90;99.90;;;;;;5142387;27;20232;-79
2022/09/30 05:50:23;;;;;;;11.10;10.70;;;5.80;99.90;;;;;;5142430;27;20315;-79
2022/09/30 05:52:51;;;;;;;10.80;10.50;;;5.80;99.90;;;;;;5142140;27;20223;-79
2022/09/30 05:55:20;;;;;;;11.20;10.80;;;5.80;99.90;;;;;;5141760;27;20235;-79
2022/09/30 05:57:49;;;;;;;11.20;10.80;;;5.70;99.90;;;;;;5151182;27;20227;-79
2022/09/30 06:00:19;;;;;;;11.23;10.83;;;5.70;99.90;;;;;;5145083;27;20220;-79
2022/09/30 06:02:53;;;;;;;11.20;10.80;;;5.70;99.90;;;;;;5144194;27;21020;-78
2022/09/30 06:05:22;;;;;;;11.50;11.10;;;5.70;99.90;;;;;;5144752;27;20228;-79
2022/09/30 06:07:50;;;;;;;11.20;10.80;;;5.70;99.90;;;;;;5143519;27;20300;-80
2022/09/30 06:10:17;;;;;;;11.17;10.77;;;5.70;99.90;;;;;;5142206;27;20331;-78
2022/09/30 06:12:45;;;;;;;11.20;10.80;;;5.70;99.90;;;;;;5141395;27;20223;-79
2022/09/30 06:15:12;;;;;;;11.27;10.87;;;5.70;99.90;;;;;;5141756;27;20239;-79
2022/09/30 06:17:41;;;;;;;11.13;10.73;;;5.70;99.90;;;;;;5142183;27;20240;-79
2022/09/30 06:20:11;;;;;;;11.60;11.20;;;5.70;99.90;;;;;;5139649;27;20235;-78
2022/09/30 06:22:38;;;;;;;11.80;11.40;;;5.60;99.90;;;;;;5140022;27;20319;-77
2022/09/30 06:25:07;;;;;;;11.60;11.20;;;5.60;99.90;;;;;;5139244;27;20223;-78
2022/09/30 06:27:36;;;;;;;11.27;10.87;;;5.60;99.90;;;;;;5139411;27;20245;-77
2022/09/30 06:30:04;;;;;;;11.20;10.80;;;5.60;99.90;;;;;;5140076;27;20315;-78
2022/09/30 06:32:31;;;;;;;11.23;10.83;;;5.60;99.90;;;;;;5139103;27;20228;-77
2022/09/30 06:34:59;;;;;;;11.17;10.77;;;5.60;99.90;;;;;;5140514;27;20267;-77
2022/09/30 06:37:27;;;;;;;11.30;10.90;;;5.60;99.90;;;;;;5146429;27;20227;-77
2022/09/30 06:39:55;;;;;;;11.10;10.70;;;5.60;99.90;;;;;;5146968;27;20232;-77
2022/09/30 06:42:23;;;;;;;11.30;10.90;;;5.70;99.90;;;;;;5147094;27;20215;-77
2022/09/30 06:44:50;;;;;;;11.37;10.97;;;5.80;99.90;;;;;;5144245;27;20255;-77
2022/09/30 06:47:18;;;;;;;11.40;11.00;;;5.80;99.90;;;;;;5148929;27;20239;-79
2022/09/30 06:49:46;;;;;;;11.93;11.52;;;5.90;99.90;;;;;;5151357;27;20425;-77
2022/09/30 06:52:13;;;;;;;11.57;11.17;;;5.80;99.90;;;;;;5154473;27;20228;-77
2022/09/30 06:54:42;;;;;;;11.70;11.30;;;6.00;99.90;;;;;;5154977;27;20236;-79
2022/09/30 06:57:10;;;;;;;11.30;10.90;;;6.00;99.90;;;;;;5155432;27;20226;-78
2022/09/30 06:59:37;;;;;;;11.57;11.17;;;6.10;99.90;;;;;;5153076;27;20231;-77
2022/09/30 07:02:05;;;;;;;11.20;10.80;;;6.10;99.90;;;;;;5152738;27;20220;-77
2022/09/30 07:04:32;;;;;;;10.80;10.40;;;6.10;99.90;;;;;;5152516;27;20235;-77
2022/09/30 07:06:59;;;;;;;10.40;10.10;;;6.20;99.90;;;;;;5150099;27;20295;-78
2022/09/30 07:09:27;;;;;;;10.53;10.23;;;6.20;99.90;;;;;;5142718;27;20251;-79
2022/09/30 07:11:56;;;;;;;10.50;10.20;;;6.20;99.90;;;;;;5144252;27;21053;-79
2022/09/30 07:14:23;;;;;;;10.30;10.00;;;6.30;99.90;;;;;;5122419;28;20260;-79
2022/09/30 07:16:52;;;;;;;11.03;10.63;;;6.30;99.90;;;;;;5122695;28;20334;-78
2022/09/30 07:19:21;;;;;;;11.30;10.90;;;6.40;99.90;;;;;;5121647;28;20285;-79
2022/09/30 07:21:50;;;;;;;10.80;10.47;;;6.40;99.90;;;;;;5122260;28;20225;-78
2022/09/30 07:24:18;;;;;;;11.10;10.70;;;6.40;99.90;;;;;;5121637;28;20242;-79
2022/09/30 07:26:45;;;;;;;11.20;10.80;;;6.50;99.90;;;;;;5120200;28;20260;-79
2022/09/30 07:29:15;;;;;;;11.10;10.70;;;6.60;99.90;;;;;;5126486;27;20231;-79
2022/09/30 07:31:43;;;;;;;11.20;10.80;;;6.60;99.90;;;;;;5141495;27;20216;-79
2022/09/30 07:34:10;;;;;;;11.40;11.00;;;6.50;99.90;;;;;;5141286;27;20231;-78
2022/09/30 07:36:40;;;;;;;11.23;10.83;;;6.60;99.90;;;;;;5140759;27;20236;-79
2022/09/30 07:39:10;;;;;;;11.43;11.03;;;6.60;99.90;;;;;;5140977;27;20232;-79
2022/09/30 07:41:40;;;;;;;11.63;11.23;;;6.70;99.90;;;;;;5141579;27;20216;-79
2022/09/30 07:44:13;;;;;;;11.43;11.03;;;6.70;99.90;;;;;;5141425;27;20256;-78
2022/09/30 07:46:42;;;;;;;11.60;11.20;;;6.80;99.90;;;;;;5143811;27;20231;-80
2022/09/30 07:49:14;;;;;;;11.37;10.97;;;6.80;99.90;;;;;;5144118;27;20238;-81
2022/09/30 07:51:44;;;;;;;11.30;10.90;;;6.90;99.90;;;;;;5144186;27;20226;-79
2022/09/30 07:54:15;;;;;;;11.40;11.00;;;6.90;99.90;;;;;;5143837;27;20238;-79
2022/09/30 07:56:43;;;;;;;11.23;10.83;;;7.10;99.90;;;;;;5143624;27;20311;-78
2022/09/30 07:59:13;;;;;;;11.20;10.80;;;7.10;99.90;;;;;;5143648;27;20234;-79
2022/09/30 08:01:41;;;;;;;10.90;10.60;;;7.20;99.90;;;;;;5143125;27;20239;-79
2022/09/30 08:04:12;;;;;;;10.73;10.43;;;7.30;99.90;;;;;;5143697;27;20220;-79
2022/09/30 08:06:45;;;;;;;10.90;10.60;;;7.40;99.90;;;;;;5141866;27;20254;-79
2022/09/30 08:09:14;;;;;;;10.53;10.23;;;7.50;99.90;;;;;;5143163;27;20228;-79
2022/09/30 08:11:42;;;;;;;10.80;10.50;;;7.60;99.90;;;;;;5142508;27;20254;-78
2022/09/30 08:14:17;;;;;;;10.80;10.50;;;7.60;99.90;;;;;;5137737;27;20235;-78
2022/09/30 08:16:44;;;;;;;10.70;10.40;;;7.60;99.90;;;;;;5142318;27;20219;-79
2022/09/30 08:19:16;;;;;;;10.70;10.40;;;7.60;99.90;;;;;;5141801;27;20231;-79
2022/09/30 08:21:44;;;;;;;10.33;10.03;;;7.60;99.90;;;;;;5142570;27;20227;-78
2022/09/30 08:24:12;;;;;;;10.40;10.10;;;7.70;99.90;;;;;;5142639;27;20232;-78
2022/09/30 08:26:40;;;;;;;10.30;10.00;;;7.80;99.90;;;;;;5142365;27;20228;-79
2022/09/30 08:29:10;;;;;;;10.80;10.50;;;7.80;99.90;;;;;;5145609;27;20710;-80
2022/09/30 08:31:38;;;;;;;10.30;10.00;;;7.80;99.90;;;;;;5146063;27;20245;-79
2022/09/30 08:34:06;;;;;;;10.50;10.20;;;7.90;99.90;;;;;;5141577;27;20235;-78
2022/09/30 08:36:34;;;;;;;10.40;10.10;;;7.90;99.90;;;;;;5140172;27;20315;-78
2022/09/30 08:39:02;;;;;;;10.80;10.50;;;7.90;99.90;;;;;;5140179;27;20231;-78
2022/09/30 08:42:08;;;;;;;10.57;10.27;;;7.90;99.90;;;;;;5131809;27;20232;-78
2022/09/30 08:44:43;;;;;;;10.17;9.87;;;8.00;99.90;;;;;;5135092;27;20234;-78
2022/09/30 08:47:43;;;;;;;9.93;9.63;;;8.20;99.90;;;;;;5143291;27;20290;-80
2022/09/30 08:50:20;;;;;;;9.90;9.60;;;8.40;99.90;;;;;;5140841;27;20292;-78
2022/09/30 08:52:52;;;;;;;9.80;9.50;;;8.50;99.90;;;;;;5141845;27;20224;-78
2022/09/30 08:55:25;;;;;;;9.80;9.50;;;8.70;99.90;;;;;;5140050;27;20289;-78
2022/09/30 08:57:53;;;;;;;9.90;9.60;;;8.60;99.90;;;;;;5141657;27;20216;-77
2022/09/30 09:00:22;;;;;;;9.80;9.50;;;8.90;99.90;;;;;;5140075;27;20300;-81
2022/09/30 09:02:54;;;;;;;9.83;9.53;;;9.00;99.90;;;;;;5140435;27;20231;-78
2022/09/30 09:05:36;;;;;;;9.90;9.60;;;9.20;99.90;;;;;;5139026;27;20232;-78
2022/09/30 09:08:12;;;;;;;10.00;9.70;;;9.30;99.90;;;;;;5140564;27;20323;-80
2022/09/30 09:10:45;;;;;;;9.70;9.40;;;9.30;99.90;;;;;;5140912;27;20232;-79
2022/09/30 09:13:39;;;;;;;9.90;9.60;;;9.40;99.90;;;;;;5140728;27;20212;-79
2022/09/30 09:16:14;;;;;;;9.90;9.60;;;9.60;99.90;;;;;;5140655;27;20267;-79
2022/09/30 09:18:59;;;;;;;10.10;9.80;;;9.70;99.90;;;;;;5141192;27;20238;-79
2022/09/30 09:21:48;;;;;;;10.10;9.80;;;9.80;99.90;;;;;;5140994;27;20224;-79
2022/09/30 09:24:20;;;;;;;10.10;9.80;;;9.90;99.90;;;;;;5140446;27;20236;-78
2022/09/30 09:26:50;;;;;;;9.90;9.60;;;10.00;99.90;;;;;;5140055;27;20242;-79
2022/09/30 09:29:38;;;;;;;10.10;9.80;;;10.10;99.90;;;;;;5140418;27;20337;-79
2022/09/30 09:32:16;;;;;;;9.70;9.40;;;10.20;99.90;;;;;;5140348;27;20320;-78
2022/09/30 09:34:46;;;;;;;9.77;9.47;;;10.40;99.90;;;;;;5139663;27;20259;-79
2022/09/30 09:37:21;;;;;;;9.77;9.47;;;10.60;99.90;;;;;;5140180;27;20232;-80
2022/09/30 09:40:07;;;;;;;9.90;9.60;;;10.70;99.90;;;;;;5140126;27;20295;-78
2022/09/30 09:43:00;;;;;;;9.83;9.53;;;10.80;99.90;;;;;;5140170;27;20224;-77
2022/09/30 09:45:36;;;;;;;9.90;9.60;;;11.10;99.90;;;;;;5139216;27;20289;-77
2022/09/30 09:48:12;;;;;;;10.07;9.77;;;11.30;99.90;;;;;;5139240;27;20291;-77
2022/09/30 09:50:54;;;;;;;9.93;9.63;;;11.50;99.90;;;;;;5139265;27;21055;-78
2022/09/30 09:53:40;;;;;;;10.27;9.97;;;11.70;99.90;;;;;;5139897;27;20307;-78
2022/09/30 09:56:18;;;;;;;9.90;9.60;;;12.00;99.90;;;;;;5138458;27;20223;-78
2022/09/30 09:59:08;;;;;;;10.00;9.70;;;12.30;99.90;;;;;;5139887;27;20270;-77
2022/09/30 10:01:38;;;;;;;9.83;9.53;;;12.60;99.90;;;;;;5140035;27;20313;-77
2022/09/30 10:04:22;;;;;;;9.80;9.50;;;12.80;99.90;;;;;;5139629;27;20262;-78
2022/09/30 10:06:58;;;;;;;9.90;9.60;;;13.00;99.90;;;;;;5137473;27;20228;-77
2022/09/30 10:09:30;;;;;;;9.83;9.53;;;13.10;99.90;;;;;;5148054;27;20293;-79
2022/09/30 10:12:34;;;;;;;9.47;9.17;;;13.20;99.90;;;;;;5142120;27;20234;-78
2022/09/30 10:15:22;;;;;;;9.50;9.20;;;13.10;99.90;;;;;;5139895;27;20226;-77
2022/09/30 10:17:55;;;;;;;9.80;9.50;;;13.40;99.90;;;;;;5140064;27;20256;-78
2022/09/30 10:20:31;;;;;;;9.70;9.40;;;13.40;99.90;;;;;;5139129;27;20239;-79
2022/09/30 10:23:10;;;;;;;9.60;9.30;;;13.60;99.90;;;;;;5139381;27;20222;-77
2022/09/30 10:25:38;;;;;;;9.63;9.33;;;13.80;99.90;;;;;;5137511;27;20227;-77
2022/09/30 10:28:24;;;;;;;9.80;9.50;;;13.90;99.90;;;;;;5138707;27;20212;-79
2022/09/30 10:30:56;;;;;;;9.77;9.47;;;14.10;99.90;;;;;;5140208;27;20292;-79
2022/09/30 10:33:31;;;;;;;9.70;9.40;;;14.20;99.90;;;;;;5138600;27;20243;-77
2022/09/30 10:36:14;;;;;;;10.07;9.77;;;14.20;99.90;;;;;;5137507;27;20227;-78
2022/09/30 10:39:00;;;;;;;11.10;10.80;;;14.50;99.90;;;;;;5135734;27;20246;-79
2022/09/30 10:41:30;;;;;;;10.47;10.17;;;14.80;99.90;;;;;;5139540;27;20254;-79
2022/09/30 10:44:01;;;;;;;10.63;10.32;;;15.00;99.90;;;;;;5139875;27;20238;-79
2022/09/30 10:46:34;;;;;;;10.57;10.27;;;15.20;99.90;;;;;;5139269;27;20224;-79
2022/09/30 10:49:11;;;;;;;10.70;10.40;;;15.40;99.90;;;;;;5138915;27;20224;-79
2022/09/30 10:51:40;;;;;;;10.38;10.07;;;15.70;99.90;;;;;;5140711;27;20231;-80
2022/09/30 10:54:48;;;;;;;10.68;10.38;;;15.90;99.90;;;;;;5139878;27;20282;-80
2022/09/30 10:57:21;;;;;;;10.40;10.10;;;16.00;99.90;;;;;;5140880;27;20232;-79
2022/09/30 10:59:49;;;;;;;10.18;9.88;;;16.10;99.90;;;;;;5139055;27;20228;-79
2022/09/30 11:02:28;;;;;;;10.60;10.30;;;16.00;99.90;;;;;;5138512;27;20285;-80
2022/09/30 11:05:06;;;;;;;10.50;10.20;;;16.00;99.90;;;;;;5141231;27;20319;-80
2022/09/30 11:07:41;;;;;;;10.30;10.00;;;16.10;99.90;;;;;;5141295;27;20235;-80
2022/09/30 11:10:33;;;;;;;10.73;10.43;;;16.20;99.90;;;;;;5142210;27;20263;-81
2022/09/30 11:13:11;;;;;;;10.75;10.45;;;16.30;99.90;;;;;;5142735;27;20224;-81
2022/09/30 11:15:48;;;;;;;11.00;10.70;;;16.70;99.90;;;;;;5140889;27;20227;-81
2022/09/30 11:18:29;;;;;;;10.75;10.45;;;16.90;99.90;;;;;;5142645;27;20230;-81
2022/09/30 11:21:04;;;;;;;10.73;10.43;;;17.10;99.90;;;;;;5145147;27;20223;-82
2022/09/30 11:23:37;;;;;;;10.40;10.10;;;17.40;99.90;;;;;;5145102;27;20285;-81
2022/09/30 11:26:20;;;;;;;10.60;10.30;;;17.80;99.90;;;;;;5143078;27;20318;-80
2022/09/30 11:29:04;;;;;;;10.45;10.15;;;17.90;99.90;;;;;;5143198;27;20246;-80
2022/09/30 11:31:48;;;;;;;10.55;10.25;;;17.60;99.90;;;;;;5144018;27;20224;-81
2022/09/30 11:34:32;;;;;;;10.50;10.20;;;17.60;99.90;;;;;;5143914;27;20232;-80
2022/09/30 11:37:06;;;;;;;10.40;10.10;;;17.40;99.90;;;;;;5143874;27;20223;-78
2022/09/30 11:39:55;;;;;;;10.45;10.15;;;17.30;99.90;;;;;;5147987;27;20291;-78
2022/09/30 11:42:37;;;;;;;10.40;10.10;;;17.30;99.90;;;;;;5146370;27;20267;-78
2022/09/30 11:45:25;;;;;;;10.52;10.23;;;17.30;99.90;;;;;;5140859;27;20232;-78
2022/09/30 11:48:21;;;;;;;10.65;10.35;;;17.50;99.90;;;;;;5141162;27;20228;-78
2022/09/30 11:51:02;;;;;;;11.40;11.00;;;17.60;99.90;;;;;;5141466;27;20236;-78
2022/09/30 11:53:46;;;;;;;11.35;11.00;;;17.80;99.90;;;;;;5145754;27;20267;-81
2022/09/30 11:56:28;;;;;;;11.63;11.23;;;18.20;99.90;;;;;;5143076;27;20319;-80
2022/09/30 11:59:03;;;;;;;11.10;10.80;;;18.40;99.90;;;;;;5141757;27;20251;-80
2022/09/30 12:01:36;;;;;;;11.27;10.95;;;18.50;99.90;;;;;;5142466;27;20227;-80
2022/09/30 12:04:09;;;;;;;10.95;10.65;;;18.60;99.90;;;;;;5141807;27;20231;-80
2022/09/30 12:06:41;;;;;;;11.02;10.73;;;18.70;99.90;;;;;;5142170;27;20232;-81
2022/09/30 12:09:17;;;;;;;10.75;10.45;;;18.60;99.90;;;;;;5141317;27;20310;-80
2022/09/30 12:11:55;;;;;;;11.25;10.95;;;18.50;99.90;;;;;;5142069;27;20224;-79
2022/09/30 12:14:33;;;;;;;10.93;10.63;;;18.40;99.90;;;;;;5130508;27;20225;-79
2022/09/30 12:17:09;;;;;;;11.00;10.70;;;18.30;99.90;;;;;;5139021;27;20244;-80
2022/09/30 12:19:41;;;;;;;11.00;10.70;;;18.10;99.90;;;;;;5141164;27;20274;-79
2022/09/30 12:22:20;;;;;;;11.20;10.90;;;18.10;99.90;;;;;;5142576;27;20235;-80
2022/09/30 12:24:48;;;;;;;11.18;10.88;;;18.30;99.90;;;;;;5141348;27;20295;-81
2022/09/30 12:27:30;;;;;;;10.82;10.52;;;18.50;99.90;;;;;;5142436;27;20231;-80
2022/09/30 12:30:16;;;;;;;10.63;10.32;;;18.60;99.90;;;;;;5141592;27;20232;-80
2022/09/30 12:33:22;;;;;;;10.88;10.57;;;18.50;99.90;;;;;;5142394;27;20236;-81
2022/09/30 12:36:23;;;;;;;10.70;10.40;;;18.30;99.90;;;;;;5145106;27;20250;-82
2022/09/30 12:39:28;;;;;;;11.00;10.70;;;18.20;99.90;;;;;;5142820;27;20237;-82
2022/09/30 12:42:14;;;;;;;11.02;10.73;;;18.00;99.90;;;;;;5140958;27;20232;-83
2022/09/30 12:45:22;;;;;;;10.90;10.60;;;18.10;99.90;;;;;;5145437;27;20224;-81
2022/09/30 12:47:57;;;;;;;10.90;10.60;;;18.30;99.90;;;;;;5122181;27;20228;-80
2022/09/30 12:50:28;;;;;;;11.05;10.75;;;18.50;99.90;;;;;;5134590;27;20767;-80
2022/09/30 12:53:00;;;;;;;11.20;10.90;;;18.40;99.90;;;;;;5142341;27;20220;-80
2022/09/30 12:55:31;;;;;;;10.93;10.63;;;18.30;99.90;;;;;;5143336;27;20582;-80
2022/09/30 12:58:04;;;;;;;10.90;10.60;;;18.40;99.90;;;;;;5143609;27;20219;-80
2022/09/30 13:00:36;;;;;;;10.70;10.40;;;18.30;99.90;;;;;;5143334;27;20236;-82
2022/09/30 13:03:14;;;;;;;11.00;10.70;;;18.20;99.90;;;;;;5149399;27;20257;-80
2022/09/30 13:05:55;;;;;;;10.70;10.40;;;18.10;99.90;;;;;;5140591;27;20238;-81
2022/09/30 13:08:49;;;;;;;10.90;10.60;;;18.00;99.90;;;;;;5143363;27;20211;-81
2022/09/30 13:11:44;;;;;;;10.90;10.60;;;18.20;99.90;;;;;;5131214;27;20239;-81
2022/09/30 13:14:31;;;;;;;10.85;10.55;;;18.50;99.90;;;;;;5134438;27;20239;-81
2022/09/30 13:17:26;;;;;;;11.10;10.80;;;18.60;99.90;;;;;;5141455;27;20231;-79
2022/09/30 13:20:05;;;;;;;10.90;10.60;;;18.60;99.90;;;;;;5134083;27;20252;-82